Kinoene Maru — JD3762 — position and weather

sailwx.info

Track history (hours):
 
Tides and Currents Weather Stations Pressure Air Temp Water Temp Dewpoint Dewpoint Depression Visibility Wind Speed Wind Dir Waves Ship Positions

Kinoene Maru

Last reported at 2017-Sep-20 09:09 UTC. Time now 2017-Sep-20 18:09 UTC.
Position N 35°05' E 139°36'.

Length 61 m.

Type: Cargo ship. MMSI: 431005966.

Date/timePositionNaut miles runAvg speedWind from/ knotsBaromVisibWave heightAir tempDewpointWater temp
2017-Sep-20 09:09N 35°05' E 139°36'1 8.4
2017-Sep-20 09:00N 35°06' E 139°37'4 8.6
2017-Sep-20 08:30N 35°08' E 139°42'4 8.4
2017-Sep-20 08:00N 35°11' E 139°45'6 8.4
2017-Sep-20 07:18N 35°17' E 139°45'510.0
2017-Sep-20 06:49N 35°21' E 139°42'3 9.8
2017-Sep-20 06:30N 35°24' E 139°43'7 9.8
2017-Sep-20 05:50N 35°28' E 139°49'6 0.3
2017-Sep-19 08:29N 35°35' E 139°48'4 0.9
2017-Sep-19 03:54N 35°38' E 139°46'410.6
2017-Sep-19 03:28N 35°35' E 139°48'5 4.6
2017-Sep-19 02:27N 35°31' E 139°52'5 9.8
2017-Sep-19 01:58N 35°27' E 139°49'710.5
2017-Sep-19 01:20N 35°21' E 139°45'4 9.8
2017-Sep-19 00:58N 35°17' E 139°45'5 9.8
2017-Sep-19 00:27N 35°13' E 139°47'510.7
2017-Sep-19 00:00N 35°08' E 139°46'510.4
2017-Sep-18 23:30N 35°03' E 139°43'  
Track history (hours):
 
Tides and Currents Weather Stations Pressure Air Temp Water Temp Dewpoint Dewpoint Depression Visibility Wind Speed Wind Dir Waves Ship Positions

Kinoene Maru

Last reported at 2017-Sep-20 09:09 UTC. Time now 2017-Sep-20 18:09 UTC.
Position N 35°05' E 139°36'.

Length 61 m.

Type: Cargo ship. MMSI: 431005966.

Date/timePositionNaut miles runAvg speedWind from/ knotsBaromVisibWave heightAir tempDewpointWater temp
2017-Sep-20 09:09N 35°05' E 139°36'1 8.4
2017-Sep-20 09:00N 35°06' E 139°37'4 8.6
2017-Sep-20 08:30N 35°08' E 139°42'4 8.4
2017-Sep-20 08:00N 35°11' E 139°45'6 8.4
2017-Sep-20 07:18N 35°17' E 139°45'510.0
2017-Sep-20 06:49N 35°21' E 139°42'3 9.8
2017-Sep-20 06:30N 35°24' E 139°43'7 9.8
2017-Sep-20 05:50N 35°28' E 139°49'6 0.3
2017-Sep-19 08:29N 35°35' E 139°48'4 0.9
2017-Sep-19 03:54N 35°38' E 139°46'410.6
2017-Sep-19 03:28N 35°35' E 139°48'5 4.6
2017-Sep-19 02:27N 35°31' E 139°52'5 9.8
2017-Sep-19 01:58N 35°27' E 139°49'710.5
2017-Sep-19 01:20N 35°21' E 139°45'4 9.8
2017-Sep-19 00:58N 35°17' E 139°45'5 9.8
2017-Sep-19 00:27N 35°13' E 139°47'510.7
2017-Sep-19 00:00N 35°08' E 139°46'510.4
2017-Sep-18 23:30N 35°03' E 139°43'  

Dump ship's entire track history